Wawota, Canada
Current Conditions -  °F | °C
As of 10:00 AM on Saturday 25 Oct 2014 (Local Time) from CYEN Reporting Station
Few Clouds Few Clouds  
Wind Chill: 45°   Ceiling: Unl
Heat Index: 45°   Visibility: 15mi
Dew Point: 34°   Wind: 3mph
Humidity: 66%   Direction: 200°SSW
Pressure: 30.11"   Gusts: NA
Location:  49.9°N, 102.02°W
Report Text: CYEN 251600Z 20003KT 15SM FEW130 FEW250 07/01 A3011 RMK AC1CI1SLP218
Loading
Personal Weather Stations






























Interactive Weather Map
Tropical Storm Tracking
New forecast layout! Learn more

10-Day Weather Forecast

Advertisements
Track Severe Weather on mobile